Time;durP1;ratioP1;P1;durP2;ratioP2;P2;SDS_P1;SDS_P2;PMS_P1;PMS_P2;Temp;Humidity;BMP_temperature;BMP_pressure;BME280_temperature;BME280_humidity;BME280_pressure;Samples;Min_cycle;Max_cycle;Signal;HPM_P1;HPM_P2
2023/03/05 00:03:27;;;;;;;1.45;0.70;;;19.00;59.60;;;;;;10518870;28;20101;-23
2023/03/05 00:08:29;;;;;;;3.80;0.75;;;18.90;59.50;;;;;;10532225;28;20054;-23
2023/03/05 00:13:32;;;;;;;1.80;0.57;;;18.90;59.90;;;;;;10528369;28;20055;-23
2023/03/05 00:18:35;;;;;;;4.70;1.08;;;18.50;61.00;;;;;;10547578;28;20127;-23
2023/03/05 00:23:37;;;;;;;1.95;0.95;;;18.80;60.00;;;;;;10549552;28;20543;-21
2023/03/05 00:28:39;;;;;;;2.00;0.80;;;18.80;59.90;;;;;;10529783;28;20048;-24
2023/03/05 00:33:42;;;;;;;1.70;1.00;;;18.80;59.60;;;;;;10522123;28;20098;-23
2023/03/05 00:38:44;;;;;;;2.67;0.52;;;18.80;59.70;;;;;;10526639;28;20052;-23
2023/03/05 00:43:47;;;;;;;2.10;0.60;;;18.80;59.70;;;;;;10526664;28;20132;-24
2023/03/05 00:48:50;;;;;;;2.72;0.68;;;18.80;59.50;;;;;;10526058;28;20089;-24
2023/03/05 00:53:52;;;;;;;1.75;0.60;;;18.80;59.60;;;;;;10544222;28;20071;-27
2023/03/05 00:58:53;;;;;;;1.67;0.60;;;18.80;59.60;;;;;;10528761;28;20040;-28
2023/03/05 01:03:58;;;;;;;1.92;0.50;;;18.70;59.50;;;;;;10527960;28;20044;-22
2023/03/05 01:09:00;;;;;;;2.85;0.60;;;18.70;59.60;;;;;;10534475;28;20047;-23
2023/03/05 01:14:02;;;;;;;2.08;0.68;;;18.70;59.60;;;;;;10528214;28;20101;-24
2023/03/05 01:19:05;;;;;;;1.48;0.40;;;18.70;59.60;;;;;;10532099;28;20460;-24
2023/03/05 01:24:08;;;;;;;0.80;0.50;;;18.60;59.50;;;;;;10536096;28;20070;-23
2023/03/05 01:29:10;;;;;;;1.05;0.55;;;18.60;59.60;;;;;;10533721;28;20139;-23
2023/03/05 01:34:13;;;;;;;4.45;0.55;;;18.60;59.60;;;;;;10536170;28;20109;-23
2023/03/05 01:39:15;;;;;;;1.75;0.50;;;18.60;59.50;;;;;;10537250;28;20040;-25
2023/03/05 01:44:22;;;;;;;1.17;0.35;;;18.50;59.50;;;;;;10529068;28;20123;-24
2023/03/05 01:49:26;;;;;;;2.08;0.63;;;18.50;59.50;;;;;;10527866;28;20047;-24
2023/03/05 01:54:34;;;;;;;1.73;0.63;;;18.50;59.40;;;;;;10539785;28;20044;-24
2023/03/05 01:59:38;;;;;;;2.05;0.40;;;18.50;59.50;;;;;;10525421;28;20083;-24
2023/03/05 02:04:48;;;;;;;5.22;0.82;;;18.50;59.50;;;;;;10520031;28;20072;-24
2023/03/05 02:09:50;;;;;;;1.00;0.43;;;17.20;57.70;;;;;;10525339;28;20070;-23
2023/03/05 02:14:58;;;;;;;3.33;0.98;;;18.20;60.80;;;;;;10529083;28;20164;-23
2023/03/05 02:20:06;;;;;;;4.28;0.70;;;14.70;83.30;;;;;;10524996;28;20044;-23
2023/03/05 02:25:18;;;;;;;4.15;1.42;;;11.90;78.50;;;;;;10529342;28;20384;-23
2023/03/05 02:30:21;;;;;;;5.80;1.48;;;15.50;80.70;;;;;;10522204;28;20472;-24
2023/03/05 02:35:23;;;;;;;1.98;0.93;;;14.60;80.70;;;;;;10518352;28;20464;-24
2023/03/05 02:40:26;;;;;;;3.05;0.93;;;16.40;65.70;;;;;;10528090;28;20048;-24
2023/03/05 02:45:28;;;;;;;2.60;0.68;;;16.40;72.30;;;;;;10525910;28;20052;-24
2023/03/05 02:50:31;;;;;;;2.07;0.57;;;17.60;64.70;;;;;;10530164;28;20122;-24
2023/03/05 02:55:34;;;;;;;0.85;0.50;;;17.70;63.00;;;;;;10528263;28;20549;-24
2023/03/05 03:00:36;;;;;;;6.88;0.75;;;17.90;62.10;;;;;;10520898;28;20130;-24
2023/03/05 03:05:38;;;;;;;1.98;0.50;;;18.00;61.60;;;;;;10513731;28;20036;-25
2023/03/05 03:10:41;;;;;;;6.45;1.05;;;17.60;63.50;;;;;;10503431;28;20143;-24
2023/03/05 03:15:43;;;;;;;0.82;0.38;;;17.00;60.90;;;;;;10524327;28;20103;-25
2023/03/05 03:20:45;;;;;;;2.13;0.82;;;17.70;62.30;;;;;;10511925;28;20052;-24
2023/03/05 03:25:49;;;;;;;0.60;0.40;;;17.90;61.50;;;;;;10514055;28;20381;-23
2023/03/05 03:30:51;;;;;;;1.52;0.40;;;17.40;61.40;;;;;;10522511;28;20113;-24
2023/03/05 03:35:53;;;;;;;0.43;0.40;;;15.00;70.40;;;;;;10520743;28;20480;-23
2023/03/05 03:40:56;;;;;;;1.40;0.60;;;16.30;71.40;;;;;;10513148;28;20425;-24
2023/03/05 03:45:58;;;;;;;1.65;0.47;;;16.50;66.00;;;;;;10518489;28;20480;-27
2023/03/05 03:51:03;;;;;;;2.87;0.60;;;14.10;85.00;;;;;;10521510;28;20529;-25
2023/03/05 03:56:07;;;;;;;1.13;0.50;;;16.50;69.30;;;;;;10520099;28;20044;-25
2023/03/05 04:01:09;;;;;;;2.30;0.50;;;16.20;71.30;;;;;;10525434;28;20076;-23
2023/03/05 04:06:11;;;;;;;0.67;0.30;;;17.50;63.50;;;;;;10534329;28;20037;-24
2023/03/05 04:11:14;;;;;;;1.42;0.50;;;17.60;62.10;;;;;;10521567;28;20573;-24
2023/03/05 04:16:18;;;;;;;2.42;0.32;;;17.70;61.50;;;;;;10534653;28;20134;-23
2023/03/05 04:21:20;;;;;;;1.15;0.32;;;16.60;64.60;;;;;;10532725;28;20064;-23
2023/03/05 04:26:23;;;;;;;1.50;0.50;;;13.50;89.50;;;;;;10529522;28;20075;-23
2023/03/05 04:31:25;;;;;;;1.08;0.50;;;13.00;90.10;;;;;;10532570;28;20139;-23
2023/03/05 04:36:27;;;;;;;0.60;0.50;;;16.60;68.60;;;;;;10519006;28;21115;-23
2023/03/05 04:41:30;;;;;;;0.83;0.30;;;17.20;63.70;;;;;;10527054;28;20066;-23
2023/03/05 04:46:32;;;;;;;1.00;0.43;;;17.40;62.50;;;;;;10523160;28;20543;-23
2023/03/05 04:51:34;;;;;;;0.50;0.30;;;17.50;61.50;;;;;;10530381;28;20391;-23
2023/03/05 04:56:37;;;;;;;1.50;0.30;;;17.50;61.60;;;;;;10519397;28;20460;-23
2023/03/05 05:01:39;;;;;;;1.10;0.65;;;17.50;60.80;;;;;;10525457;28;20060;-22
2023/03/05 05:06:41;;;;;;;1.08;0.30;;;17.40;61.60;;;;;;10531362;28;20043;-23
2023/03/05 05:11:44;;;;;;;1.27;0.40;;;17.50;61.30;;;;;;10540749;28;20547;-23
2023/03/05 05:16:46;;;;;;;3.45;0.30;;;17.20;62.30;;;;;;10536700;28;20094;-24
2023/03/05 05:21:48;;;;;;;1.00;0.35;;;16.90;62.90;;;;;;10529655;28;20048;-24
2023/03/05 05:26:53;;;;;;;2.22;0.30;;;16.20;68.50;;;;;;10534255;28;20102;-26
2023/03/05 05:31:55;;;;;;;0.40;0.20;;;15.90;57.20;;;;;;10533357;28;20154;-23
2023/03/05 05:36:57;;;;;;;0.53;0.40;;;17.10;63.40;;;;;;10519384;28;20043;-24
2023/03/05 05:42:00;;;;;;;2.08;0.47;;;17.20;58.00;;;;;;10524466;28;20466;-23
2023/03/05 05:47:02;;;;;;;4.97;0.50;;;16.70;62.60;;;;;;10528584;28;20526;-23
2023/03/05 05:52:04;;;;;;;2.53;0.70;;;16.20;65.50;;;;;;10528826;28;20829;-23
2023/03/05 05:57:08;;;;;;;0.40;0.30;;;15.30;65.60;;;;;;10509268;28;20585;-22
2023/03/05 06:02:10;;;;;;;1.70;0.50;;;16.60;69.20;;;;;;10541831;28;20131;-22
2023/03/05 06:07:12;;;;;;;0.20;0.20;;;18.00;60.30;;;;;;10530035;28;20040;-23
2023/03/05 06:12:16;;;;;;;2.63;0.38;;;18.00;60.60;;;;;;10534755;28;20087;-23
2023/03/05 06:17:17;;;;;;;0.52;0.10;;;18.30;59.90;;;;;;10521549;28;20079;-23
2023/03/05 06:22:19;;;;;;;1.98;0.40;;;18.20;60.10;;;;;;10532282;28;20071;-22
2023/03/05 06:27:22;;;;;;;1.35;0.30;;;18.40;59.60;;;;;;10529905;28;20048;-24
2023/03/05 06:32:25;;;;;;;1.02;0.30;;;17.70;61.10;;;;;;10519523;28;20113;-23
2023/03/05 06:37:27;;;;;;;1.13;0.20;;;18.40;59.60;;;;;;10537180;28;20098;-23
2023/03/05 06:42:30;;;;;;;1.88;0.20;;;18.20;59.30;;;;;;10532379;28;20433;-23
2023/03/05 06:47:32;;;;;;;3.25;0.68;;;17.70;57.40;;;;;;10509602;28;20468;-22
2023/03/05 06:52:34;;;;;;;2.80;0.55;;;17.50;59.60;;;;;;10528347;28;20407;-24
2023/03/05 06:57:37;;;;;;;0.88;0.32;;;18.10;59.50;;;;;;10548341;28;20058;-24
2023/03/05 07:15:02;;;;;;;1.73;0.30;;;18.30;59.00;;;;;;10558921;27;20439;-24
2023/03/05 07:20:05;;;;;;;0.57;0.17;;;17.70;61.70;;;;;;10573286;28;20036;-26
2023/03/05 07:25:08;;;;;;;1.45;0.43;;;17.90;60.90;;;;;;10566090;28;20082;-24
2023/03/05 07:30:12;;;;;;;2.60;0.40;;;17.10;60.30;;;;;;10561414;28;20416;-25
2023/03/05 07:35:14;;;;;;;4.60;0.30;;;13.30;77.80;;;;;;10562128;28;20056;-24
2023/03/05 07:40:17;;;;;;;2.03;0.30;;;14.10;81.40;;;;;;10568430;28;20108;-24
2023/03/05 07:45:20;;;;;;;1.13;0.32;;;13.40;83.70;;;;;;10555848;28;20046;-24
2023/03/05 07:50:22;;;;;;;3.95;0.65;;;11.60;93.20;;;;;;10563312;27;20125;-24
2023/03/05 07:55:24;;;;;;;1.23;0.70;;;13.40;81.20;;;;;;10563379;28;20079;-24
2023/03/05 08:00:27;;;;;;;1.27;0.30;;;13.10;74.40;;;;;;10561427;28;20043;-24
2023/03/05 08:05:29;;;;;;;0.40;0.40;;;15.90;74.50;;;;;;10569364;28;20032;-24
2023/03/05 08:10:31;;;;;;;0.50;0.20;;;17.30;64.00;;;;;;10561465;28;20075;-23
2023/03/05 08:15:36;;;;;;;0.52;0.35;;;17.70;61.70;;;;;;10560516;28;20484;-24
2023/03/05 08:20:38;;;;;;;2.88;0.40;;;17.90;60.80;;;;;;10565081;28;20138;-24
2023/03/05 08:25:40;;;;;;;1.20;0.30;;;17.20;63.60;;;;;;10526509;28;20051;-24
2023/03/05 08:30:44;;;;;;;3.10;0.40;;;16.50;60.50;;;;;;10530040;28;20915;-21
2023/03/05 08:35:46;;;;;;;1.45;0.22;;;16.10;71.50;;;;;;10536619;28;20052;-25
2023/03/05 08:40:48;;;;;;;1.17;0.30;;;15.80;58.90;;;;;;10534996;28;20100;-23
2023/03/05 08:45:52;;;;;;;0.85;0.40;;;16.70;65.20;;;;;;10530786;28;20128;-23
2023/03/05 08:50:55;;;;;;;4.47;0.50;;;16.60;70.10;;;;;;10533865;28;20471;-24
2023/03/05 08:55:57;;;;;;;3.03;0.63;;;15.30;75.10;;;;;;10524444;28;20131;-22
2023/03/05 09:01:00;;;;;;;;;;;17.00;66.60;;;;;;10528955;28;20817;-24
2023/03/05 09:06:05;;;;;;;2.25;0.50;;;17.40;64.10;;;;;;10526250;28;19942;-24
2023/03/05 09:11:10;;;;;;;0.85;0.38;;;17.00;66.30;;;;;;10523603;28;20108;-25
2023/03/05 09:16:16;;;;;;;1.63;0.47;;;17.80;64.00;;;;;;10535598;28;20047;-23
2023/03/05 09:21:18;;;;;;;1.23;0.55;;;18.10;63.60;;;;;;10535176;28;20135;-23
2023/03/05 09:26:20;;;;;;;2.95;0.30;;;18.10;63.40;;;;;;10529201;28;20052;-24
2023/03/05 09:31:23;;;;;;;1.52;0.30;;;18.10;63.10;;;;;;10538049;28;20101;-24
2023/03/05 09:36:28;;;;;;;1.00;0.40;;;18.00;63.20;;;;;;10528093;28;20837;-23
2023/03/05 09:41:40;;;;;;;1.23;0.30;;;16.70;69.40;;;;;;10533095;28;20143;-24
2023/03/05 09:46:52;;;;;;;1.20;0.38;;;17.90;63.80;;;;;;10526192;28;20126;-21
2023/03/05 09:52:01;;;;;;;1.30;0.30;;;18.00;62.60;;;;;;10531434;28;20047;-24
2023/03/05 09:57:10;;;;;;;2.67;0.52;;;18.20;62.50;;;;;;10532883;28;20039;-24
2023/03/05 10:02:19;;;;;;;2.47;0.40;;;18.30;61.60;;;;;;10533729;28;20067;-22
2023/03/05 10:07:25;;;;;;;0.43;0.17;;;18.30;62.40;;;;;;10528162;28;20050;-22
2023/03/05 10:12:42;;;;;;;1.15;0.30;;;18.10;63.60;;;;;;10526690;28;20052;-23
2023/03/05 10:17:58;;;;;;;3.63;0.28;;;17.80;62.50;;;;;;10527874;28;20028;-26
2023/03/05 10:23:16;;;;;;;0.73;0.40;;;17.70;66.70;;;;;;10525805;28;20527;-23
2023/03/05 10:28:21;;;;;;;4.47;0.40;;;18.20;63.60;;;;;;10526052;28;20116;-23
2023/03/05 10:33:34;;;;;;;2.47;0.35;;;18.20;64.00;;;;;;10527806;28;20075;-25
2023/03/05 10:38:48;;;;;;;2.38;0.40;;;17.40;58.40;;;;;;10526354;28;20351;-25
2023/03/05 10:43:57;;;;;;;2.85;0.50;;;16.30;50.50;;;;;;10520512;28;20048;-23
2023/03/05 10:49:06;;;;;;;3.92;0.75;;;16.20;53.50;;;;;;10537159;28;20039;-23
2023/03/05 10:54:16;;;;;;;0.20;0.20;;;15.40;74.80;;;;;;10531982;28;21109;-24
2023/03/05 10:59:18;;;;;;;1.65;0.20;;;17.40;69.40;;;;;;10528799;28;20040;-24
2023/03/05 11:04:30;;;;;;;0.60;0.20;;;16.40;66.00;;;;;;10520816;28;21389;-24
2023/03/05 11:09:32;;;;;;;;;;;15.90;78.50;;;;;;10531863;28;20043;-24
2023/03/05 11:14:37;;;;;;;1.15;0.77;;;16.20;69.50;;;;;;10526990;28;19915;-23
2023/03/05 11:19:40;;;;;;;1.80;0.30;;;17.50;68.30;;;;;;10521855;28;20033;-23
2023/03/05 11:24:45;;;;;;;1.17;0.20;;;17.30;66.40;;;;;;10532303;28;20044;-25
2023/03/05 11:29:48;;;;;;;1.35;0.32;;;17.60;66.40;;;;;;10525447;28;20393;-23
2023/03/05 11:34:52;;;;;;;0.68;0.20;;;17.20;69.20;;;;;;10513791;28;20139;-24
2023/03/05 11:40:19;;;;;;;3.28;0.45;;;18.30;62.50;;;;;;10521083;28;20032;-23
2023/03/05 11:45:22;;;;;;;1.33;0.30;;;17.80;64.30;;;;;;10530994;28;20493;-24
2023/03/05 11:50:28;;;;;;;0.55;0.28;;;14.40;55.10;;;;;;10528527;28;20089;-27
2023/03/05 11:55:36;;;;;;;0.70;0.22;;;12.40;65.70;;;;;;10540121;28;20079;-24
2023/03/05 12:00:43;;;;;;;1.73;0.30;;;13.80;58.60;;;;;;10531387;28;20137;-24
2023/03/05 12:05:50;;;;;;;1.52;0.25;;;17.40;67.60;;;;;;10534079;28;20080;-23
2023/03/05 12:10:52;;;;;;;0.90;0.20;;;13.70;85.30;;;;;;10536937;28;20079;-23
2023/03/05 12:16:04;;;;;;;0.93;0.28;;;14.60;87.60;;;;;;10534154;28;20046;-22
2023/03/05 12:21:17;;;;;;;1.17;0.23;;;15.20;52.90;;;;;;10536320;28;20075;-23
2023/03/05 12:26:39;;;;;;;1.55;0.17;;;15.10;79.50;;;;;;10538731;28;20101;-22
2023/03/05 12:31:44;;;;;;;1.27;0.38;;;16.60;61.60;;;;;;10540111;28;20036;-24
2023/03/05 12:36:46;;;;;;;2.50;0.30;;;16.20;71.00;;;;;;10536443;28;20071;-23
2023/03/05 12:41:48;;;;;;;5.10;0.90;;;13.40;55.10;;;;;;10531526;28;20473;-24
2023/03/05 12:47:22;;;;;;;1.40;0.30;;;14.40;69.80;;;;;;10532941;28;20508;-25
2023/03/05 12:52:27;;;;;;;1.42;0.45;;;14.70;76.50;;;;;;10530685;28;20619;-24
2023/03/05 12:57:30;;;;;;;1.50;0.40;;;12.10;92.80;;;;;;10532420;28;20071;-24
2023/03/05 13:02:36;;;;;;;0.75;0.40;;;12.50;76.30;;;;;;10529378;28;20135;-23
2023/03/05 13:07:38;;;;;;;2.40;0.60;;;14.10;88.80;;;;;;10541249;28;20082;-25
2023/03/05 13:12:51;;;;;;;0.70;0.57;;;13.40;92.30;;;;;;10544113;28;20095;-25
2023/03/05 13:17:56;;;;;;;;;;;13.40;80.70;;;;;;10539366;28;20040;-23
2023/03/05 13:23:12;;;;;;;1.95;0.70;;;15.60;81.00;;;;;;10545788;28;19994;-23
2023/03/05 13:28:16;;;;;;;1.30;0.55;;;13.80;92.30;;;;;;10542878;28;20040;-23
2023/03/05 13:33:25;;;;;;;2.20;0.95;;;15.60;76.50;;;;;;10532063;28;20051;-24
2023/03/05 13:38:33;;;;;;;0.50;0.40;;;14.30;77.10;;;;;;10545609;28;20050;-23
2023/03/05 13:43:43;;;;;;;1.63;0.55;;;15.20;86.60;;;;;;10533136;28;20044;-23
2023/03/05 13:48:46;;;;;;;2.75;0.50;;;15.20;63.20;;;;;;10535907;28;20681;-22
2023/03/05 13:53:49;;;;;;;0.63;0.30;;;14.40;90.20;;;;;;10532626;28;20168;-25
2023/03/05 13:58:53;;;;;;;5.55;2.63;;;15.60;70.70;;;;;;10530973;28;20040;-24
2023/03/05 14:03:59;;;;;;;1.08;0.60;;;13.10;89.10;;;;;;10527251;28;20040;-25
2023/03/05 14:09:07;;;;;;;4.43;0.60;;;14.90;88.10;;;;;;10525693;28;20637;-24
2023/03/05 14:14:16;;;;;;;1.92;0.50;;;13.70;90.10;;;;;;10526560;28;20887;-24
2023/03/05 14:19:35;;;;;;;2.45;0.47;;;13.70;65.40;;;;;;10531265;28;20139;-24
2023/03/05 14:24:38;;;;;;;2.85;0.82;;;13.40;72.10;;;;;;10525839;28;20144;-26
2023/03/05 14:29:45;;;;;;;2.78;0.70;;;15.40;85.50;;;;;;10525843;28;20579;-25
2023/03/05 14:34:53;;;;;;;0.38;0.30;;;15.60;71.60;;;;;;10539022;28;20469;-22
2023/03/05 14:39:58;;;;;;;0.85;0.30;;;16.50;74.60;;;;;;10528408;28;20056;-26
2023/03/05 14:45:01;;;;;;;2.25;0.60;;;15.20;84.90;;;;;;10526072;28;20502;-25
2023/03/05 14:50:06;;;;;;;1.85;0.75;;;13.30;90.50;;;;;;10527263;28;20047;-24
2023/03/05 14:55:13;;;;;;;1.42;0.30;;;14.50;90.50;;;;;;10530421;28;20046;-24
2023/03/05 15:00:17;;;;;;;0.90;0.60;;;15.20;87.50;;;;;;10529773;28;20131;-28
2023/03/05 15:05:21;;;;;;;0.98;0.43;;;12.90;93.80;;;;;;10520096;28;20133;-23
2023/03/05 15:10:25;;;;;;;5.57;0.82;;;15.30;82.50;;;;;;10522042;28;20796;-23
2023/03/05 15:15:27;;;;;;;4.45;1.27;;;16.50;77.70;;;;;;10529312;28;20711;-24
2023/03/05 15:20:32;;;;;;;2.65;1.05;;;12.00;64.30;;;;;;10527701;28;20142;-23
2023/03/05 15:25:35;;;;;;;2.90;0.38;;;13.70;91.30;;;;;;10527148;28;20044;-25
2023/03/05 15:30:40;;;;;;;3.15;0.75;;;14.70;56.30;;;;;;10527209;28;20121;-27
2023/03/05 15:35:43;;;;;;;2.35;0.85;;;13.60;75.90;;;;;;10528970;28;20385;-24
2023/03/05 15:40:45;;;;;;;3.92;0.70;;;15.60;86.10;;;;;;10526167;28;20123;-25
2023/03/05 15:45:47;;;;;;;2.15;0.60;;;16.80;68.40;;;;;;10533782;28;20075;-23
2023/03/05 15:50:50;;;;;;;3.37;0.50;;;14.10;90.90;;;;;;10532475;28;20097;-24
2023/03/05 15:55:52;;;;;;;4.50;0.65;;;14.50;92.60;;;;;;10521486;28;20125;-24
2023/03/05 16:00:54;;;;;;;5.87;1.27;;;14.00;93.60;;;;;;10531570;28;20059;-27
2023/03/05 16:05:57;;;;;;;4.10;0.63;;;15.00;83.90;;;;;;10534241;28;20052;-24
2023/03/05 16:11:00;;;;;;;0.95;0.77;;;15.70;85.60;;;;;;10533732;28;21418;-24
2023/03/05 16:16:02;;;;;;;;;;;15.80;85.50;;;;;;10533696;28;20048;-22
2023/03/05 16:21:06;;;;;;;5.63;0.60;;;16.60;76.10;;;;;;10531208;28;20318;-24
2023/03/05 16:26:09;;;;;;;11.50;1.35;;;18.80;63.10;;;;;;10537623;28;20085;-23
2023/03/05 16:31:11;;;;;;;9.48;1.70;;;19.10;61.40;;;;;;10534361;28;20114;-23
2023/03/05 16:36:21;;;;;;;14.48;1.73;;;19.40;60.50;;;;;;10534597;28;20431;-23
2023/03/05 16:41:24;;;;;;;12.57;1.30;;;19.10;61.40;;;;;;10526156;28;20063;-23
2023/03/05 16:46:28;;;;;;;20.35;2.13;;;19.30;60.60;;;;;;10528947;28;20143;-27
2023/03/05 16:51:31;;;;;;;12.57;2.17;;;19.50;60.20;;;;;;10543946;28;20135;-23
2023/03/05 16:56:33;;;;;;;25.83;2.58;;;19.50;59.90;;;;;;10550682;28;20083;-27
2023/03/05 17:01:35;;;;;;;9.10;1.33;;;19.60;59.70;;;;;;10524025;28;20040;-23
2023/03/05 17:06:39;;;;;;;25.77;2.28;;;19.60;59.50;;;;;;10514997;28;20044;-25
2023/03/05 17:11:41;;;;;;;52.30;5.68;;;19.50;59.70;;;;;;10532624;28;20426;-24
2023/03/05 17:16:43;;;;;;;67.40;5.18;;;19.30;60.60;;;;;;10530290;28;20092;-25
2023/03/05 17:21:49;;;;;;;74.22;6.32;;;16.80;67.20;;;;;;10530077;28;20040;-24
2023/03/05 17:26:51;;;;;;;46.17;4.30;;;17.80;71.50;;;;;;10531033;28;20047;-24
2023/03/05 17:31:53;;;;;;;45.67;4.72;;;18.30;68.30;;;;;;10527431;28;20040;-23
2023/03/05 17:36:56;;;;;;;25.80;3.17;;;19.30;63.10;;;;;;10537664;28;20076;-24
2023/03/05 17:41:58;;;;;;;11.20;1.55;;;19.50;62.00;;;;;;10543761;28;20476;-22
2023/03/05 17:47:00;;;;;;;20.05;2.08;;;19.50;61.70;;;;;;10529916;28;20391;-23
2023/03/05 17:52:03;;;;;;;;;;;19.60;61.50;;;;;;10527558;28;20476;-23
2023/03/05 17:57:05;;;;;;;23.35;2.47;;;19.60;61.70;;;;;;10525532;28;19974;-26
2023/03/05 18:02:07;;;;;;;29.20;4.55;;;19.60;61.40;;;;;;10528884;28;20075;-27
2023/03/05 18:07:10;;;;;;;31.55;4.43;;;19.40;62.70;;;;;;10526578;28;20076;-24
2023/03/05 18:12:12;;;;;;;17.95;2.90;;;19.60;61.90;;;;;;10533207;28;20136;-23
2023/03/05 18:17:14;;;;;;;19.70;3.55;;;19.60;62.00;;;;;;10524264;28;20154;-23
2023/03/05 18:22:18;;;;;;;65.93;7.40;;;19.60;61.90;;;;;;10524704;28;20044;-24
2023/03/05 18:27:21;;;;;;;91.22;10.27;;;19.10;63.60;;;;;;10530707;28;20497;-24
2023/03/05 18:32:23;;;;;;;75.97;11.43;;;18.90;64.80;;;;;;10517562;28;20554;-25
2023/03/05 18:37:27;;;;;;;131.02;14.65;;;18.80;65.60;;;;;;10526066;28;20038;-25
2023/03/05 18:42:29;;;;;;;138.95;15.73;;;18.70;65.80;;;;;;10529632;28;20066;-24
2023/03/05 18:47:31;;;;;;;131.23;16.90;;;18.60;66.40;;;;;;10527300;28;20047;-23
2023/03/05 18:52:34;;;;;;;116.30;15.15;;;18.60;66.90;;;;;;10529702;28;20044;-24
2023/03/05 18:57:36;;;;;;;98.07;15.70;;;18.50;67.10;;;;;;10515542;28;20113;-23
2023/03/05 19:02:38;;;;;;;89.57;14.80;;;18.50;67.20;;;;;;10513178;28;20075;-26
2023/03/05 19:07:41;;;;;;;96.47;16.75;;;18.30;68.00;;;;;;10530121;28;20229;-24
2023/03/05 19:12:52;;;;;;;89.97;14.77;;;18.20;68.70;;;;;;10524179;28;20452;-24
2023/03/05 19:17:54;;;;;;;45.58;8.10;;;17.70;72.60;;;;;;10519649;28;20055;-24
2023/03/05 19:22:57;;;;;;;40.08;8.73;;;18.90;64.80;;;;;;10527899;28;20384;-24
2023/03/05 19:27:59;;;;;;;32.38;6.93;;;19.00;63.60;;;;;;10528365;28;20038;-24
2023/03/05 19:33:02;;;;;;;33.55;7.95;;;19.10;63.30;;;;;;10531703;28;20072;-25
2023/03/05 19:38:05;;;;;;;38.60;8.15;;;19.10;63.40;;;;;;10524792;28;20040;-26
2023/03/05 19:43:07;;;;;;;29.23;6.78;;;19.20;63.30;;;;;;10526622;28;20117;-24
2023/03/05 19:48:09;;;;;;;;;;;19.20;63.00;;;;;;10522361;28;20048;-23
2023/03/05 19:53:13;;;;;;;25.02;8.90;;;19.20;63.30;;;;;;10524237;28;20368;-28
2023/03/05 19:58:15;;;;;;;16.15;5.22;;;19.20;63.30;;;;;;10520852;28;20052;-24
2023/03/05 20:03:16;;;;;;;20.63;5.13;;;19.20;63.40;;;;;;10520052;28;20568;-24
2023/03/05 20:08:20;;;;;;;28.25;6.53;;;19.20;63.70;;;;;;10525934;28;20048;-22
2023/03/05 20:13:22;;;;;;;27.42;6.57;;;19.20;63.70;;;;;;10513803;28;20416;-23
2023/03/05 20:18:24;;;;;;;35.58;9.23;;;19.10;63.40;;;;;;10521848;28;20147;-23
2023/03/05 20:23:27;;;;;;;;;;;18.70;65.80;;;;;;10532820;28;20039;-25
2023/03/05 20:28:29;;;;;;;22.05;5.95;;;19.10;64.10;;;;;;10522963;28;20028;-24
2023/03/05 20:33:31;;;;;;;27.90;6.63;;;19.10;63.70;;;;;;10531561;28;20368;-24
2023/03/05 20:38:34;;;;;;;20.30;6.13;;;19.10;63.50;;;;;;10531337;28;20040;-25
2023/03/05 20:43:39;;;;;;;25.60;7.15;;;19.10;63.50;;;;;;10526981;28;20130;-24
2023/03/05 20:48:41;;;;;;;31.77;8.20;;;18.80;64.40;;;;;;10526610;28;20097;-24
2023/03/05 20:53:45;;;;;;;36.30;8.27;;;18.70;64.90;;;;;;10527658;28;20067;-23
2023/03/05 20:58:47;;;;;;;21.92;7.05;;;18.70;65.30;;;;;;10537094;28;20040;-23
2023/03/05 21:03:49;;;;;;;35.75;8.30;;;18.60;65.30;;;;;;10546264;28;20131;-23
2023/03/05 21:08:53;;;;;;;33.08;7.32;;;18.60;65.30;;;;;;10536433;28;20048;-23
2023/03/05 21:13:55;;;;;;;21.75;6.75;;;18.60;65.40;;;;;;10541387;27;20585;-24
2023/03/05 21:18:57;;;;;;;25.92;7.22;;;18.50;65.50;;;;;;10530610;28;20044;-25
2023/03/05 21:24:00;;;;;;;22.38;6.25;;;18.50;65.60;;;;;;10529005;28;20412;-22
2023/03/05 21:29:03;;;;;;;13.70;4.78;;;18.50;65.40;;;;;;10527785;28;20116;-24
2023/03/05 21:34:04;;;;;;;20.40;7.25;;;18.40;65.60;;;;;;10534227;28;20069;-23
2023/03/05 21:39:08;;;;;;;16.05;5.43;;;18.40;65.50;;;;;;10523849;28;20089;-24
2023/03/05 21:44:11;;;;;;;11.32;5.05;;;18.40;65.70;;;;;;10526015;28;20063;-25
2023/03/05 21:49:13;;;;;;;13.77;4.63;;;18.30;66.00;;;;;;10532148;28;20441;-25
2023/03/05 21:54:17;;;;;;;16.73;4.28;;;18.30;66.40;;;;;;10534203;28;20150;-25
2023/03/05 21:59:18;;;;;;;12.68;4.90;;;18.20;66.80;;;;;;10535710;28;20535;-24
2023/03/05 22:04:20;;;;;;;11.88;5.20;;;18.10;66.90;;;;;;10539907;28;20162;-24
2023/03/05 22:09:24;;;;;;;9.15;4.20;;;18.00;67.30;;;;;;10533501;28;20477;-26
2023/03/05 22:14:25;;;;;;;9.13;4.20;;;17.80;68.90;;;;;;10533696;28;20054;-24
2023/03/05 22:19:28;;;;;;;10.90;4.22;;;17.70;68.60;;;;;;10536455;28;20134;-24
2023/03/05 22:24:32;;;;;;;18.35;3.92;;;17.70;69.00;;;;;;10534463;28;20036;-24
2023/03/05 22:29:33;;;;;;;16.38;4.93;;;17.80;67.70;;;;;;10533592;28;20043;-25
2023/03/05 22:34:36;;;;;;;16.02;4.15;;;17.90;67.40;;;;;;10531891;28;20035;-25
2023/03/05 22:39:39;;;;;;;6.47;3.28;;;17.80;67.60;;;;;;10529931;28;20138;-25
2023/03/05 22:44:41;;;;;;;14.65;3.75;;;17.80;67.40;;;;;;10515120;28;20172;-23
2023/03/05 22:49:43;;;;;;;9.60;3.50;;;17.70;67.40;;;;;;10507583;28;20748;-22
2023/03/05 22:54:46;;;;;;;6.85;3.55;;;17.70;67.40;;;;;;10515695;28;20121;-24
2023/03/05 22:59:49;;;;;;;8.00;3.58;;;17.70;67.90;;;;;;10526287;28;20950;-24
2023/03/05 23:04:53;;;;;;;;;;;17.70;67.10;;;;;;10530387;28;20452;-25
2023/03/05 23:09:58;;;;;;;6.80;3.20;;;17.70;66.90;;;;;;10521330;28;19920;-23
2023/03/05 23:15:02;;;;;;;5.38;2.72;;;17.60;67.80;;;;;;10538652;28;20048;-23
2023/03/05 23:20:06;;;;;;;8.75;3.35;;;17.70;66.90;;;;;;10533974;28;20124;-24
2023/03/05 23:25:11;;;;;;;9.13;2.85;;;17.60;66.80;;;;;;10525082;28;20032;-26
2023/03/05 23:30:19;;;;;;;5.70;2.47;;;17.50;67.30;;;;;;10522829;28;20079;-24
2023/03/05 23:35:23;;;;;;;8.38;2.63;;;17.50;67.60;;;;;;10528302;28;20040;-24
2023/03/05 23:40:29;;;;;;;9.57;3.10;;;17.40;68.40;;;;;;10527381;28;20040;-24
2023/03/05 23:45:31;;;;;;;5.65;3.10;;;17.50;67.40;;;;;;10525100;28;20128;-24
2023/03/05 23:50:34;;;;;;;;;;;17.50;67.00;;;;;;10528355;28;20516;-24
2023/03/05 23:55:41;;;;;;;7.10;2.28;;;17.50;67.40;;;;;;10539663;28;19960;-24
